createdAt,value
2022-10-18T00:02:20.756Z,63.06
2022-10-18T00:05:23.029Z,62.78
2022-10-18T00:08:25.445Z,62.78
2022-10-18T00:11:27.703Z,62.61
2022-10-18T00:14:30.173Z,63.02
2022-10-18T00:17:34.892Z,62.59
2022-10-18T00:20:37.198Z,62.83
2022-10-18T00:23:41.981Z,62.59
2022-10-18T00:26:44.665Z,62.67
2022-10-18T00:29:46.966Z,62.50
2022-10-18T00:32:49.236Z,62.83
2022-10-18T00:35:51.482Z,62.66
2022-10-18T00:38:54.018Z,62.61
2022-10-18T00:41:56.438Z,63.21
2022-10-18T00:45:18.874Z,63.06
2022-10-18T00:48:21.510Z,63.25
2022-10-18T00:51:27.829Z,62.99
2022-10-18T00:54:31.788Z,63.29
2022-10-18T00:57:34.719Z,63.35
2022-10-18T01:00:39.523Z,63.56
2022-10-18T01:03:42.045Z,63.52
2022-10-18T01:10:09.128Z,63.21
2022-10-18T01:13:49.778Z,63.36
2022-10-18T01:17:13.825Z,63.69
2022-10-18T01:20:31.334Z,63.61
2022-10-18T01:23:37.162Z,64.01
2022-10-18T01:26:48.477Z,64.57
2022-10-18T01:29:59.335Z,64.23
2022-10-18T01:33:15.639Z,63.61
2022-10-18T01:36:20.595Z,63.99
2022-10-18T01:39:26.955Z,64.06
2022-10-18T01:42:29.816Z,64.38
2022-10-18T01:45:33.005Z,64.19
2022-10-18T01:48:38.082Z,64.33
2022-10-18T01:51:40.422Z,64.46
2022-10-18T01:54:46.157Z,64.67
2022-10-18T01:58:06.265Z,64.35
2022-10-18T02:01:20.266Z,64.62
2022-10-18T02:04:31.611Z,64.46
2022-10-18T02:07:39.666Z,64.83
2022-10-18T02:10:45.681Z,64.67
2022-10-18T02:13:55.106Z,64.96
2022-10-18T02:16:58.826Z,64.99
2022-10-18T02:20:02.788Z,64.32
2022-10-18T02:23:07.806Z,64.60
2022-10-18T02:26:10.133Z,65.26
2022-10-18T02:29:12.650Z,64.84
2022-10-18T02:32:21.057Z,64.94
2022-10-18T02:35:30.170Z,65.31
2022-10-18T02:38:32.972Z,64.78
2022-10-18T02:41:35.282Z,65.09
2022-10-18T02:44:38.842Z,64.62
2022-10-18T02:47:41.207Z,65.03
2022-10-18T02:50:43.473Z,64.74
2022-10-18T02:53:45.780Z,64.87
2022-10-18T02:56:48.173Z,64.93
2022-10-18T02:59:50.716Z,65.20
2022-10-18T03:02:53.928Z,64.99
2022-10-18T03:05:56.271Z,65.37
2022-10-18T03:08:58.580Z,65.11
2022-10-18T03:12:00.881Z,65.04
2022-10-18T03:15:03.321Z,65.61
2022-10-18T03:18:05.717Z,65.33
2022-10-18T03:21:08.789Z,65.36
2022-10-18T03:24:11.092Z,65.48
2022-10-18T03:27:13.429Z,65.92
2022-10-18T03:30:15.815Z,65.49
2022-10-18T03:33:18.516Z,65.54
2022-10-18T03:36:20.839Z,65.59
2022-10-18T03:39:23.177Z,65.77
2022-10-18T03:42:25.575Z,65.62
2022-10-18T03:45:31.175Z,66.05
2022-10-18T03:48:34.076Z,65.43
2022-10-18T03:51:36.377Z,65.58
2022-10-18T03:54:38.721Z,65.50
2022-10-18T03:57:41.064Z,64.90
2022-10-18T04:00:43.376Z,64.73
2022-10-18T04:03:45.760Z,64.90
2022-10-18T04:06:48.089Z,64.97
2022-10-18T04:09:50.353Z,65.27
2022-10-18T04:12:52.798Z,65.77
2022-10-18T04:15:55.054Z,65.43
2022-10-18T04:18:57.373Z,64.91
2022-10-18T04:21:59.721Z,65.12
2022-10-18T04:25:02.009Z,65.00
2022-10-18T04:28:04.845Z,65.07
2022-10-18T04:31:07.193Z,65.52
2022-10-18T04:34:10.394Z,65.45
2022-10-18T04:37:12.581Z,65.22
2022-10-18T04:40:14.970Z,65.61
2022-10-18T04:43:17.452Z,65.79
2022-10-18T04:46:19.744Z,65.51
2022-10-18T04:49:21.965Z,65.89
2022-10-18T04:52:24.431Z,65.87
2022-10-18T04:55:26.762Z,65.67
2022-10-18T04:58:28.993Z,65.61
2022-10-18T05:01:31.306Z,65.71
2022-10-18T05:04:33.788Z,65.70
2022-10-18T05:07:36.161Z,64.77
2022-10-18T05:10:38.542Z,64.50
2022-10-18T05:13:40.868Z,64.89
2022-10-18T05:16:43.144Z,65.28
2022-10-18T05:19:45.478Z,65.58
2022-10-18T05:22:47.805Z,65.53
2022-10-18T05:25:50.061Z,65.67
2022-10-18T05:28:52.425Z,65.27
2022-10-18T05:31:54.781Z,65.01
2022-10-18T05:34:57.002Z,65.16
2022-10-18T05:37:59.377Z,65.63
2022-10-18T05:41:04.521Z,65.06
2022-10-18T05:44:07.530Z,64.93
2022-10-18T05:47:10.021Z,65.06
2022-10-18T05:50:12.301Z,65.00
2022-10-18T05:53:35.182Z,64.88
2022-10-18T05:56:36.780Z,64.47
2022-10-18T05:59:39.114Z,63.95
2022-10-18T06:02:41.441Z,64.21
2022-10-18T06:05:43.789Z,63.02
2022-10-18T06:08:49.226Z,61.96
2022-10-18T06:11:51.495Z,61.05
2022-10-18T06:14:53.765Z,61.43
2022-10-18T06:17:56.321Z,61.13
2022-10-18T06:20:59.584Z,60.99
2022-10-18T06:24:01.928Z,61.24
2022-10-18T06:27:09.098Z,60.56
2022-10-18T06:30:11.832Z,60.34
2022-10-18T06:33:14.122Z,60.84
2022-10-18T06:36:18.996Z,59.73
2022-10-18T06:39:21.305Z,60.24
2022-10-18T06:42:23.557Z,59.83
2022-10-18T06:45:25.856Z,59.23
2022-10-18T06:48:28.125Z,59.03
2022-10-18T06:51:30.387Z,59.22
2022-10-18T06:54:32.626Z,58.52
2022-10-18T06:57:34.913Z,57.81
2022-10-18T07:00:37.304Z,56.02
2022-10-18T07:03:39.680Z,54.26
2022-10-18T07:06:41.899Z,52.21
2022-10-18T07:09:46.088Z,52.56
2022-10-18T07:12:48.395Z,51.99
2022-10-18T07:16:12.911Z,52.07
2022-10-18T07:19:18.035Z,48.79
2022-10-18T07:22:20.337Z,50.45
2022-10-18T07:25:24.792Z,47.14
2022-10-18T07:28:29.823Z,47.08
2022-10-18T07:31:33.457Z,47.43
2022-10-18T07:34:35.869Z,45.17
2022-10-18T07:37:38.194Z,44.63
2022-10-18T07:40:40.413Z,42.80
2022-10-18T07:43:47.544Z,44.60
2022-10-18T07:46:49.769Z,41.90
2022-10-18T07:49:52.043Z,42.48
2022-10-18T07:52:54.397Z,43.24
2022-10-18T07:56:02.331Z,41.94
2022-10-18T07:59:06.916Z,41.98
2022-10-18T08:02:09.527Z,41.50
2022-10-18T08:05:11.798Z,40.25
2022-10-18T08:08:14.083Z,39.39
2022-10-18T08:11:18.924Z,40.00
2022-10-18T08:14:21.201Z,38.63
2022-10-18T08:17:23.486Z,38.71
2022-10-18T08:20:30.808Z,38.81
2022-10-18T08:23:34.438Z,38.24
2022-10-18T08:26:36.748Z,37.94
2022-10-18T08:29:39.096Z,38.18
2022-10-18T08:32:41.439Z,38.11
2022-10-18T08:35:43.712Z,37.25
2022-10-18T08:38:46.184Z,37.87
2022-10-18T08:41:54.795Z,37.44
2022-10-18T08:44:58.098Z,37.55
2022-10-18T08:48:00.424Z,37.47
2022-10-18T08:51:04.559Z,37.58
2022-10-18T08:54:12.144Z,36.53
2022-10-18T08:57:18.120Z,35.90
2022-10-18T09:00:22.759Z,36.27
2022-10-18T09:03:43.913Z,36.01
2022-10-18T09:07:19.974Z,34.97
2022-10-18T09:14:13.468Z,34.12
2022-10-18T09:17:16.258Z,34.03
2022-10-18T09:20:29.035Z,32.19
2022-10-18T09:23:49.641Z,32.75
2022-10-18T09:26:57.470Z,32.15
2022-10-18T09:30:20.929Z,32.07
2022-10-18T09:33:34.657Z,32.41
2022-10-18T09:36:38.800Z,33.59
2022-10-18T09:39:41.365Z,33.54
2022-10-18T09:42:53.436Z,32.54
2022-10-18T09:45:55.942Z,31.89
2022-10-18T09:49:01.845Z,31.43
2022-10-18T09:52:09.381Z,30.89
2022-10-18T09:55:19.396Z,31.21
2022-10-18T09:58:23.327Z,30.66
2022-10-18T10:01:27.567Z,30.80
2022-10-18T10:04:29.895Z,30.46
2022-10-18T10:07:42.685Z,29.88
2022-10-18T10:10:48.154Z,29.88
2022-10-18T10:13:50.426Z,29.68
2022-10-18T10:16:59.226Z,28.68
2022-10-18T10:20:20.818Z,28.93
2022-10-18T10:23:26.890Z,28.99
2022-10-18T10:26:36.668Z,28.36
2022-10-18T10:29:53.857Z,28.52
2022-10-18T10:32:57.041Z,28.55
2022-10-18T10:36:01.273Z,29.08
2022-10-18T10:39:04.916Z,28.35
2022-10-18T10:42:13.711Z,28.51
2022-10-18T10:45:16.136Z,29.17
2022-10-18T10:48:19.981Z,28.70
2022-10-18T10:51:33.049Z,27.91
2022-10-18T10:54:37.342Z,27.89
2022-10-18T10:57:39.681Z,28.09
2022-10-18T11:00:44.384Z,27.82
2022-10-18T11:03:48.873Z,28.38
2022-10-18T11:06:57.606Z,28.86
2022-10-18T11:10:13.526Z,28.77
2022-10-18T11:13:23.202Z,28.39
2022-10-18T11:17:07.713Z,28.67
2022-10-18T11:20:22.758Z,28.42
2022-10-18T11:23:32.009Z,28.32
2022-10-18T11:26:53.743Z,27.21
2022-10-18T11:29:59.440Z,28.08
2022-10-18T11:33:02.020Z,28.17
2022-10-18T11:36:09.366Z,28.58
2022-10-18T11:39:30.277Z,27.67
2022-10-18T11:42:53.628Z,27.73
2022-10-18T11:46:24.209Z,28.66
2022-10-18T11:49:54.147Z,28.31
2022-10-18T11:53:07.842Z,27.99
2022-10-18T11:56:13.146Z,28.95
2022-10-18T11:59:56.833Z,27.79
2022-10-18T12:03:14.123Z,27.98
2022-10-18T12:06:19.610Z,27.87
2022-10-18T12:09:27.906Z,28.76
2022-10-18T12:12:33.922Z,28.53
2022-10-18T12:15:39.433Z,28.37
2022-10-18T12:18:48.916Z,28.32
2022-10-18T12:21:51.685Z,27.89
2022-10-18T12:24:54.063Z,27.55
2022-10-18T12:28:06.760Z,28.07
2022-10-18T12:31:28.353Z,28.04
2022-10-18T12:34:44.174Z,28.12
2022-10-18T12:37:55.607Z,29.37
2022-10-18T12:40:59.103Z,28.35
2022-10-18T12:44:05.966Z,28.17
2022-10-18T12:47:22.135Z,27.96
2022-10-18T12:50:50.831Z,27.86
2022-10-18T12:54:02.028Z,28.04
2022-10-18T12:57:06.905Z,28.59
2022-10-18T13:00:31.656Z,28.22
2022-10-18T13:03:55.753Z,28.48
2022-10-18T13:06:59.674Z,28.28
2022-10-18T13:10:08.040Z,28.13
2022-10-18T13:13:38.714Z,28.48
2022-10-18T13:17:02.345Z,27.24
2022-10-18T13:20:27.110Z,27.23
2022-10-18T13:23:56.178Z,27.62
2022-10-18T13:27:31.113Z,26.93
2022-10-18T13:30:47.207Z,27.48
2022-10-18T13:33:49.955Z,28.55
2022-10-18T13:37:02.838Z,27.84
2022-10-18T13:40:21.834Z,27.96
2022-10-18T13:43:53.048Z,28.35
2022-10-18T13:46:55.395Z,29.04
2022-10-18T13:50:35.017Z,28.87
2022-10-18T13:53:51.163Z,29.51
2022-10-18T13:56:56.924Z,28.76
2022-10-18T14:00:21.045Z,28.87
2022-10-18T14:03:58.578Z,29.30
2022-10-18T14:07:03.462Z,29.64
2022-10-18T14:10:10.453Z,29.04
2022-10-18T14:13:21.074Z,28.90
2022-10-18T14:16:52.674Z,29.74
2022-10-18T14:20:48.976Z,30.42
2022-10-18T14:23:52.742Z,30.80
2022-10-18T14:27:20.562Z,29.82
2022-10-18T14:30:23.072Z,30.19
2022-10-18T14:33:28.256Z,30.53
2022-10-18T14:36:40.001Z,31.06
2022-10-18T14:39:42.277Z,31.17
2022-10-18T14:42:48.607Z,31.30
2022-10-18T14:45:50.879Z,31.29
2022-10-18T14:48:59.289Z,31.56
2022-10-18T14:52:01.706Z,31.38
2022-10-18T14:55:04.348Z,31.62
2022-10-18T14:58:15.286Z,31.79
2022-10-18T15:01:19.590Z,32.43
2022-10-18T15:04:27.701Z,32.61
2022-10-18T15:07:32.595Z,32.60
2022-10-18T15:10:35.597Z,33.19
2022-10-18T15:13:47.104Z,33.63
2022-10-18T15:16:49.993Z,33.42
2022-10-18T15:20:06.252Z,33.41
2022-10-18T15:23:26.578Z,33.82
2022-10-18T15:26:30.292Z,34.46
2022-10-18T15:29:35.300Z,34.27
2022-10-18T15:32:37.993Z,34.09
2022-10-18T15:35:43.425Z,34.11
2022-10-18T15:38:47.664Z,35.21
2022-10-18T15:41:59.547Z,34.90
2022-10-18T15:45:01.812Z,35.44
2022-10-18T15:48:09.280Z,35.54
2022-10-18T15:51:49.568Z,35.63
2022-10-18T15:54:51.859Z,36.22
2022-10-18T15:57:54.213Z,39.31
2022-10-18T16:00:59.001Z,39.21
2022-10-18T16:04:05.179Z,40.02
2022-10-18T16:07:09.620Z,40.64
2022-10-18T16:10:15.509Z,42.65
2022-10-18T16:13:18.530Z,41.58
2022-10-18T16:16:25.876Z,42.75
2022-10-18T16:19:28.151Z,42.95
2022-10-18T16:22:34.701Z,43.78
2022-10-18T16:25:39.287Z,44.36
2022-10-18T16:28:42.326Z,45.08
2022-10-18T16:31:46.711Z,45.47
2022-10-18T16:34:48.952Z,46.51
2022-10-18T16:37:51.181Z,45.37
2022-10-18T16:40:53.838Z,45.99
2022-10-18T16:43:56.161Z,46.73
2022-10-18T16:46:58.424Z,47.65
2022-10-18T16:50:06.462Z,47.35
2022-10-18T16:53:09.282Z,47.62
2022-10-18T16:56:17.461Z,48.18
2022-10-18T16:59:29.071Z,48.63
2022-10-18T17:02:31.720Z,46.69
2022-10-18T17:05:34.487Z,48.54
2022-10-18T17:08:36.748Z,48.82
2022-10-18T17:11:38.981Z,49.18
2022-10-18T17:14:41.280Z,49.35
2022-10-18T17:17:43.599Z,49.46
2022-10-18T17:20:46.296Z,49.86
2022-10-18T17:23:48.950Z,49.69
2022-10-18T17:26:51.249Z,50.30
2022-10-18T17:29:53.537Z,50.96
2022-10-18T17:32:55.911Z,51.23
2022-10-18T17:35:58.213Z,51.42
2022-10-18T17:39:00.732Z,51.69
2022-10-18T17:42:02.990Z,51.49
2022-10-18T17:45:05.882Z,51.74
2022-10-18T17:48:08.150Z,51.60
2022-10-18T17:51:11.573Z,52.07
2022-10-18T17:54:13.905Z,52.48
2022-10-18T17:57:16.351Z,51.84
2022-10-18T18:00:18.724Z,52.65
2022-10-18T18:03:21.320Z,52.90
2022-10-18T18:06:31.392Z,53.34
2022-10-18T18:09:33.767Z,53.78
2022-10-18T18:12:36.340Z,53.59
2022-10-18T18:15:38.794Z,52.88
2022-10-18T18:18:41.312Z,53.48
2022-10-18T18:21:43.689Z,53.95
2022-10-18T18:24:45.969Z,53.30
2022-10-18T18:27:48.173Z,54.27
2022-10-18T18:30:50.445Z,53.81
2022-10-18T18:33:54.460Z,54.47
2022-10-18T18:36:56.722Z,54.72
2022-10-18T18:39:59.055Z,54.69
2022-10-18T18:43:12.468Z,54.32
2022-10-18T18:46:25.001Z,55.01
2022-10-18T18:49:27.608Z,54.35
2022-10-18T18:52:30.010Z,55.29
2022-10-18T18:55:32.689Z,55.29
2022-10-18T18:58:36.420Z,54.39
2022-10-18T19:01:38.806Z,55.38
2022-10-18T19:04:41.462Z,55.09
2022-10-18T19:07:43.732Z,55.57
2022-10-18T19:10:49.059Z,55.37
2022-10-18T19:13:51.392Z,55.21
2022-10-18T19:16:55.286Z,55.45
2022-10-18T19:19:59.831Z,55.40
2022-10-18T19:23:02.127Z,55.34
2022-10-18T19:26:37.523Z,55.37
2022-10-18T19:29:40.963Z,55.27
2022-10-18T19:32:43.242Z,55.96
2022-10-18T19:35:45.499Z,55.79
2022-10-18T19:38:47.764Z,55.83
2022-10-18T19:41:52.291Z,55.51
2022-10-18T19:44:54.582Z,56.35
2022-10-18T19:47:56.836Z,56.45
2022-10-18T19:51:08.937Z,56.23
2022-10-18T19:54:13.113Z,56.38
2022-10-18T19:57:15.401Z,56.61
2022-10-18T20:00:19.645Z,56.68
2022-10-18T20:03:23.545Z,56.55
2022-10-18T20:06:26.529Z,56.38
2022-10-18T20:09:29.186Z,56.64
2022-10-18T20:12:31.789Z,57.08
2022-10-18T20:15:34.182Z,57.12
2022-10-18T20:18:36.787Z,56.87
2022-10-18T20:21:39.966Z,56.86
2022-10-18T20:24:42.205Z,57.46
2022-10-18T20:27:44.501Z,57.05
2022-10-18T20:30:46.752Z,57.62
2022-10-18T20:33:54.402Z,57.46
2022-10-18T20:36:56.709Z,57.25
2022-10-18T20:40:00.266Z,57.52
2022-10-18T20:43:03.851Z,57.94
2022-10-18T20:46:07.105Z,57.73
2022-10-18T20:49:13.834Z,57.76
2022-10-18T20:52:16.082Z,57.91
2022-10-18T20:55:18.955Z,57.97
2022-10-18T20:58:21.206Z,58.25
2022-10-18T21:01:31.862Z,58.46
2022-10-18T21:04:35.154Z,58.17
2022-10-18T21:07:39.085Z,58.17
2022-10-18T21:10:41.404Z,57.91
2022-10-18T21:13:43.673Z,58.29
2022-10-18T21:16:46.397Z,58.37
2022-10-18T21:19:48.626Z,58.16
2022-10-18T21:22:51.820Z,58.12
2022-10-18T21:25:54.112Z,58.14
2022-10-18T21:28:58.731Z,58.56
2022-10-18T21:32:02.319Z,58.76
2022-10-18T21:35:05.067Z,58.61
2022-10-18T21:38:07.886Z,58.56
2022-10-18T21:41:11.488Z,59.11
2022-10-18T21:44:14.119Z,58.63
2022-10-18T21:47:16.411Z,58.82
2022-10-18T21:50:18.688Z,58.37
2022-10-18T21:53:21.686Z,58.71
2022-10-18T21:56:33.555Z,58.66
2022-10-18T21:59:35.822Z,58.78
2022-10-18T22:02:38.142Z,59.11
2022-10-18T22:05:40.509Z,58.86
2022-10-18T22:08:45.668Z,59.04
2022-10-18T22:11:52.315Z,59.22
2022-10-18T22:14:54.637Z,59.13
2022-10-18T22:17:56.887Z,59.21
2022-10-18T22:21:05.458Z,59.39
2022-10-18T22:24:09.103Z,59.57
2022-10-18T22:27:11.405Z,59.52
2022-10-18T22:30:13.736Z,60.11
2022-10-18T22:33:16.058Z,59.32
2022-10-18T22:36:18.332Z,59.13
2022-10-18T22:39:20.632Z,58.37
2022-10-18T22:42:22.942Z,59.02
2022-10-18T22:45:25.295Z,58.56
2022-10-18T22:48:27.661Z,58.74
2022-10-18T22:51:30.086Z,58.55
2022-10-18T22:54:32.417Z,58.26
2022-10-18T22:57:34.861Z,58.60
2022-10-18T23:00:38.576Z,58.60
2022-10-18T23:03:40.974Z,58.87
2022-10-18T23:06:43.271Z,58.33
2022-10-18T23:09:45.658Z,58.11
2022-10-18T23:12:47.937Z,58.68
2022-10-18T23:15:50.603Z,58.83
2022-10-18T23:18:57.508Z,58.58
2022-10-18T23:21:59.750Z,58.95
2022-10-18T23:25:04.263Z,58.42
2022-10-18T23:28:06.564Z,58.35
2022-10-18T23:31:11.030Z,57.44
2022-10-18T23:34:13.404Z,57.63
2022-10-18T23:37:15.672Z,58.08
2022-10-18T23:40:18.014Z,57.07
2022-10-18T23:43:20.215Z,57.69
2022-10-18T23:46:22.605Z,57.79
2022-10-18T23:49:24.874Z,57.57
2022-10-18T23:52:27.163Z,58.41
2022-10-18T23:55:29.438Z,57.71
2022-10-18T23:58:33.123Z,57.82
